sensor_id;sensor_type;location;lat;lon;timestamp;pressure;altitude;pressure_sealevel;temperature;humidity
51439;BME280;38816;51.142;-0.974;2024-03-06T00:01:42;77807.97;;;-142.70;100.00
51439;BME280;38816;51.142;-0.974;2024-03-06T00:04:08;77819.78;;;-142.70;100.00
51439;BME280;38816;51.142;-0.974;2024-03-06T00:06:33;77829.63;;;-142.70;100.00
51439;BME280;38816;51.142;-0.974;2024-03-06T00:09:00;77837.53;;;-142.70;100.00
51439;BME280;38816;51.142;-0.974;2024-03-06T00:11:25;77847.38;;;-142.70;100.00
51439;BME280;38816;51.142;-0.974;2024-03-06T00:13:51;77843.44;;;-142.70;100.00
51439;BME280;38816;51.142;-0.974;2024-03-06T00:16:16;77849.34;;;-142.70;100.00
51439;BME280;38816;51.142;-0.974;2024-03-06T00:18:42;77849.34;;;-142.70;100.00
51439;BME280;38816;51.142;-0.974;2024-03-06T00:21:07;77843.44;;;-142.70;100.00
51439;BME280;38816;51.142;-0.974;2024-03-06T00:23:34;77851.34;;;-142.70;100.00
51439;BME280;38816;51.142;-0.974;2024-03-06T00:26:00;77859.22;;;-142.70;100.00
51439;BME280;38816;51.142;-0.974;2024-03-06T00:28:27;77863.16;;;-142.70;100.00
51439;BME280;38816;51.142;-0.974;2024-03-06T00:30:53;77876.97;;;-142.70;100.00
51439;BME280;38816;51.142;-0.974;2024-03-06T00:33:18;77884.84;;;-142.70;100.00
51439;BME280;38816;51.142;-0.974;2024-03-06T00:35:44;77888.78;;;-142.70;100.00
51439;BME280;38816;51.142;-0.974;2024-03-06T00:38:09;77894.72;;;-142.70;100.00
51439;BME280;38816;51.142;-0.974;2024-03-06T00:40:35;77886.81;;;-142.70;100.00
51439;BME280;38816;51.142;-0.974;2024-03-06T00:43:00;77884.84;;;-142.70;100.00
51439;BME280;38816;51.142;-0.974;2024-03-06T00:45:29;77880.91;;;-142.70;100.00
51439;BME280;38816;51.142;-0.974;2024-03-06T00:47:54;77880.91;;;-142.70;100.00
51439;BME280;38816;51.142;-0.974;2024-03-06T00:50:20;77884.84;;;-142.70;100.00
51439;BME280;38816;51.142;-0.974;2024-03-06T00:52:47;77882.88;;;-142.70;100.00
51439;BME280;38816;51.142;-0.974;2024-03-06T00:55:13;77880.91;;;-142.70;100.00
51439;BME280;38816;51.142;-0.974;2024-03-06T00:57:39;77884.84;;;-142.70;100.00
51439;BME280;38816;51.142;-0.974;2024-03-06T01:00:05;77898.66;;;-142.70;100.00
51439;BME280;38816;51.142;-0.974;2024-03-06T01:02:36;77910.47;;;-142.70;100.00
51439;BME280;38816;51.142;-0.974;2024-03-06T01:05:02;77918.38;;;-142.70;100.00
51439;BME280;38816;51.142;-0.974;2024-03-06T01:07:29;77926.25;;;-142.70;100.00
51439;BME280;38816;51.142;-0.974;2024-03-06T01:09:56;77928.22;;;-142.70;100.00
51439;BME280;38816;51.142;-0.974;2024-03-06T01:12:23;77934.13;;;-142.70;100.00
51439;BME280;38816;51.142;-0.974;2024-03-06T01:14:48;77942.03;;;-142.70;100.00
51439;BME280;38816;51.142;-0.974;2024-03-06T01:17:17;77949.91;;;-142.70;100.00
51439;BME280;38816;51.142;-0.974;2024-03-06T01:19:43;77951.88;;;-142.70;100.00
51439;BME280;38816;51.142;-0.974;2024-03-06T01:22:11;77945.97;;;-142.70;100.00
51439;BME280;38816;51.142;-0.974;2024-03-06T01:24:40;77940.06;;;-142.70;100.00
51439;BME280;38816;51.142;-0.974;2024-03-06T01:27:05;77951.88;;;-142.70;100.00
51439;BME280;38816;51.142;-0.974;2024-03-06T01:29:32;77959.78;;;-142.70;100.00
51439;BME280;38816;51.142;-0.974;2024-03-06T01:31:58;77949.91;;;-142.70;100.00
51439;BME280;38816;51.142;-0.974;2024-03-06T01:34:23;77953.84;;;-142.70;100.00
51439;BME280;38816;51.142;-0.974;2024-03-06T01:36:50;77955.81;;;-142.70;100.00
51439;BME280;38816;51.142;-0.974;2024-03-06T01:39:15;77967.66;;;-142.70;100.00
51439;BME280;38816;51.142;-0.974;2024-03-06T01:41:49;77977.53;;;-142.70;100.00
51439;BME280;38816;51.142;-0.974;2024-03-06T01:44:18;77987.38;;;-142.70;100.00
51439;BME280;38816;51.142;-0.974;2024-03-06T01:46:45;77995.25;;;-142.70;100.00
51439;BME280;38816;51.142;-0.974;2024-03-06T01:49:11;78009.06;;;-142.70;100.00
51439;BME280;38816;51.142;-0.974;2024-03-06T01:51:38;78011.03;;;-142.70;100.00
51439;BME280;38816;51.142;-0.974;2024-03-06T01:54:04;78016.94;;;-142.70;100.00
51439;BME280;38816;51.142;-0.974;2024-03-06T01:56:35;78014.97;;;-142.70;100.00
51439;BME280;38816;51.142;-0.974;2024-03-06T01:59:01;78016.94;;;-142.70;100.00
51439;BME280;38816;51.142;-0.974;2024-03-06T02:01:28;78020.91;;;-142.70;100.00
51439;BME280;38816;51.142;-0.974;2024-03-06T02:03:54;78014.97;;;-142.70;100.00
51439;BME280;38816;51.142;-0.974;2024-03-06T02:06:21;78016.94;;;-142.70;100.00
51439;BME280;38816;51.142;-0.974;2024-03-06T02:08:46;78013.00;;;-142.70;100.00
51439;BME280;38816;51.142;-0.974;2024-03-06T02:11:12;78018.94;;;-142.70;100.00
51439;BME280;38816;51.142;-0.974;2024-03-06T02:13:41;78036.66;;;-142.70;100.00
51439;BME280;38816;51.142;-0.974;2024-03-06T02:16:07;78046.53;;;-142.70;100.00
51439;BME280;38816;51.142;-0.974;2024-03-06T02:18:36;78048.50;;;-142.70;100.00
51439;BME280;38816;51.142;-0.974;2024-03-06T02:21:03;78050.47;;;-142.70;100.00
51439;BME280;38816;51.142;-0.974;2024-03-06T02:23:30;78050.47;;;-142.70;100.00
51439;BME280;38816;51.142;-0.974;2024-03-06T02:25:56;78044.56;;;-142.70;100.00
51439;BME280;38816;51.142;-0.974;2024-03-06T02:28:22;78052.44;;;-142.70;100.00
51439;BME280;38816;51.142;-0.974;2024-03-06T02:30:50;78046.53;;;-142.70;100.00
51439;BME280;38816;51.142;-0.974;2024-03-06T02:33:16;78046.53;;;-142.70;100.00
51439;BME280;38816;51.142;-0.974;2024-03-06T02:35:43;78042.59;;;-142.70;100.00
51439;BME280;38816;51.142;-0.974;2024-03-06T02:38:10;78040.63;;;-142.70;100.00
51439;BME280;38816;51.142;-0.974;2024-03-06T02:40:36;78042.59;;;-142.70;100.00
51439;BME280;38816;51.142;-0.974;2024-03-06T02:43:01;78040.63;;;-142.70;100.00
51439;BME280;38816;51.142;-0.974;2024-03-06T02:45:27;78038.63;;;-142.70;100.00
51439;BME280;38816;51.142;-0.974;2024-03-06T02:47:53;78036.66;;;-142.70;100.00
51439;BME280;38816;51.142;-0.974;2024-03-06T02:50:19;78036.66;;;-142.70;100.00
51439;BME280;38816;51.142;-0.974;2024-03-06T02:52:46;78036.66;;;-142.70;100.00
51439;BME280;38816;51.142;-0.974;2024-03-06T02:55:11;78026.81;;;-142.70;100.00
51439;BME280;38816;51.142;-0.974;2024-03-06T02:57:37;78018.94;;;-142.70;100.00
51439;BME280;38816;51.142;-0.974;2024-03-06T03:00:03;78020.91;;;-142.70;100.00
51439;BME280;38816;51.142;-0.974;2024-03-06T03:02:29;78030.75;;;-142.70;100.00
51439;BME280;38816;51.142;-0.974;2024-03-06T03:04:55;78036.66;;;-142.70;100.00
51439;BME280;38816;51.142;-0.974;2024-03-06T03:07:20;78042.59;;;-142.70;100.00
51439;BME280;38816;51.142;-0.974;2024-03-06T03:09:46;78052.44;;;-142.70;100.00
51439;BME280;38816;51.142;-0.974;2024-03-06T03:12:12;78052.44;;;-142.70;100.00
51439;BME280;38816;51.142;-0.974;2024-03-06T03:14:40;78066.25;;;-142.70;100.00
51439;BME280;38816;51.142;-0.974;2024-03-06T03:17:06;78076.09;;;-142.70;100.00
51439;BME280;38816;51.142;-0.974;2024-03-06T03:19:32;78084.00;;;-142.70;100.00
51439;BME280;38816;51.142;-0.974;2024-03-06T03:21:58;78091.88;;;-142.70;100.00
51439;BME280;38816;51.142;-0.974;2024-03-06T03:24:24;78101.72;;;-142.70;100.00
51439;BME280;38816;51.142;-0.974;2024-03-06T03:26:51;78115.53;;;-142.70;100.00
51439;BME280;38816;51.142;-0.974;2024-03-06T03:29:18;78123.44;;;-142.70;100.00
51439;BME280;38816;51.142;-0.974;2024-03-06T03:31:44;78123.44;;;-142.70;100.00
51439;BME280;38816;51.142;-0.974;2024-03-06T03:34:09;78117.50;;;-142.70;100.00
51439;BME280;38816;51.142;-0.974;2024-03-06T03:36:40;78119.47;;;-142.70;100.00
51439;BME280;38816;51.142;-0.974;2024-03-06T03:39:05;78115.53;;;-142.70;100.00
51439;BME280;38816;51.142;-0.974;2024-03-06T03:41:33;78123.44;;;-142.70;100.00
51439;BME280;38816;51.142;-0.974;2024-03-06T03:43:58;78123.44;;;-142.70;100.00
51439;BME280;38816;51.142;-0.974;2024-03-06T03:46:24;78117.50;;;-142.70;100.00
51439;BME280;38816;51.142;-0.974;2024-03-06T03:48:49;78115.53;;;-142.70;100.00
51439;BME280;38816;51.142;-0.974;2024-03-06T03:51:15;78107.66;;;-142.70;100.00
51439;BME280;38816;51.142;-0.974;2024-03-06T03:53:41;78099.75;;;-142.70;100.00
51439;BME280;38816;51.142;-0.974;2024-03-06T03:56:07;78099.75;;;-142.70;100.00
51439;BME280;38816;51.142;-0.974;2024-03-06T03:58:33;78111.59;;;-142.70;100.00
51439;BME280;38816;51.142;-0.974;2024-03-06T04:00:59;78115.53;;;-142.70;100.00
51439;BME280;38816;51.142;-0.974;2024-03-06T04:03:27;78111.59;;;-142.70;100.00
51439;BME280;38816;51.142;-0.974;2024-03-06T04:05:52;78099.75;;;-142.70;100.00
51439;BME280;38816;51.142;-0.974;2024-03-06T04:08:18;78087.94;;;-142.70;100.00
51439;BME280;38816;51.142;-0.974;2024-03-06T04:10:43;78091.88;;;-142.70;100.00
51439;BME280;38816;51.142;-0.974;2024-03-06T04:13:14;78107.66;;;-142.70;100.00
51439;BME280;38816;51.142;-0.974;2024-03-06T04:15:40;78109.63;;;-142.70;100.00
51439;BME280;38816;51.142;-0.974;2024-03-06T04:18:05;78109.63;;;-142.70;100.00
51439;BME280;38816;51.142;-0.974;2024-03-06T04:20:31;78115.53;;;-142.70;100.00
51439;BME280;38816;51.142;-0.974;2024-03-06T04:22:56;78123.44;;;-142.70;100.00
51439;BME280;38816;51.142;-0.974;2024-03-06T04:25:22;78119.47;;;-142.70;100.00
51439;BME280;38816;51.142;-0.974;2024-03-06T04:27:49;78119.47;;;-142.70;100.00
51439;BME280;38816;51.142;-0.974;2024-03-06T04:30:17;78119.47;;;-142.70;100.00
51439;BME280;38816;51.142;-0.974;2024-03-06T04:32:42;78123.44;;;-142.70;100.00
51439;BME280;38816;51.142;-0.974;2024-03-06T04:35:09;78131.31;;;-142.70;100.00
51439;BME280;38816;51.142;-0.974;2024-03-06T04:37:35;78135.25;;;-142.70;100.00
51439;BME280;38816;51.142;-0.974;2024-03-06T04:40:01;78143.16;;;-142.70;100.00
51439;BME280;38816;51.142;-0.974;2024-03-06T04:42:28;78153.00;;;-142.70;100.00
51439;BME280;38816;51.142;-0.974;2024-03-06T04:44:53;78162.84;;;-142.70;100.00
51439;BME280;38816;51.142;-0.974;2024-03-06T04:47:24;78172.72;;;-142.70;100.00
51439;BME280;38816;51.142;-0.974;2024-03-06T04:49:49;78174.69;;;-142.70;100.00
51439;BME280;38816;51.142;-0.974;2024-03-06T04:52:15;78176.66;;;-142.70;100.00
51439;BME280;38816;51.142;-0.974;2024-03-06T04:54:40;78170.75;;;-142.70;100.00
51439;BME280;38816;51.142;-0.974;2024-03-06T04:57:09;78170.75;;;-142.70;100.00
51439;BME280;38816;51.142;-0.974;2024-03-06T04:59:37;78178.63;;;-142.70;100.00
51439;BME280;38816;51.142;-0.974;2024-03-06T05:02:02;78180.59;;;-142.70;100.00
51439;BME280;38816;51.142;-0.974;2024-03-06T05:04:29;78178.63;;;-142.70;100.00
51439;BME280;38816;51.142;-0.974;2024-03-06T05:06:55;78180.59;;;-142.70;100.00
51439;BME280;38816;51.142;-0.974;2024-03-06T05:09:21;78186.53;;;-142.70;100.00
51439;BME280;38816;51.142;-0.974;2024-03-06T05:11:46;78186.53;;;-142.70;100.00
51439;BME280;38816;51.142;-0.974;2024-03-06T05:14:15;78192.44;;;-142.70;100.00
51439;BME280;38816;51.142;-0.974;2024-03-06T05:16:41;78192.44;;;-142.70;100.00
51439;BME280;38816;51.142;-0.974;2024-03-06T05:19:09;78194.41;;;-142.70;100.00
51439;BME280;38816;51.142;-0.974;2024-03-06T05:21:36;78190.47;;;-142.70;100.00
51439;BME280;38816;51.142;-0.974;2024-03-06T05:24:02;78198.34;;;-142.70;100.00
51439;BME280;38816;51.142;-0.974;2024-03-06T05:26:30;78204.28;;;-142.70;100.00
51439;BME280;38816;51.142;-0.974;2024-03-06T05:28:59;78218.06;;;-142.70;100.00
51439;BME280;38816;51.142;-0.974;2024-03-06T05:31:24;78225.97;;;-142.70;100.00
51439;BME280;38816;51.142;-0.974;2024-03-06T05:33:50;78229.91;;;-142.70;100.00
51439;BME280;38816;51.142;-0.974;2024-03-06T05:36:15;78239.75;;;-142.70;100.00
51439;BME280;38816;51.142;-0.974;2024-03-06T05:38:43;78245.69;;;-142.70;100.00
51439;BME280;38816;51.142;-0.974;2024-03-06T05:41:08;78251.59;;;-142.70;100.00
51439;BME280;38816;51.142;-0.974;2024-03-06T05:43:34;78249.63;;;-142.70;100.00
51439;BME280;38816;51.142;-0.974;2024-03-06T05:45:59;78241.72;;;-142.70;100.00
51439;BME280;38816;51.142;-0.974;2024-03-06T05:48:26;78245.69;;;-142.70;100.00
51439;BME280;38816;51.142;-0.974;2024-03-06T05:50:52;78239.75;;;-142.70;100.00
51439;BME280;38816;51.142;-0.974;2024-03-06T05:53:18;78239.75;;;-142.70;100.00
51439;BME280;38816;51.142;-0.974;2024-03-06T05:55:43;78241.72;;;-142.70;100.00
51439;BME280;38816;51.142;-0.974;2024-03-06T05:58:08;78233.84;;;-142.70;100.00
51439;BME280;38816;51.142;-0.974;2024-03-06T06:00:34;78233.84;;;-142.70;100.00
51439;BME280;38816;51.142;-0.974;2024-03-06T06:03:00;78229.91;;;-142.70;100.00
51439;BME280;38816;51.142;-0.974;2024-03-06T06:05:25;78222.00;;;-142.70;100.00
51439;BME280;38816;51.142;-0.974;2024-03-06T06:07:51;78210.19;;;-142.70;100.00
51439;BME280;38816;51.142;-0.974;2024-03-06T06:10:17;78198.34;;;-142.70;100.00
51439;BME280;38816;51.142;-0.974;2024-03-06T06:12:42;78190.47;;;-142.70;100.00
51439;BME280;38816;51.142;-0.974;2024-03-06T06:15:08;78184.56;;;-142.70;100.00
51439;BME280;38816;51.142;-0.974;2024-03-06T06:17:34;78178.63;;;-142.70;100.00
51439;BME280;38816;51.142;-0.974;2024-03-06T06:20:07;78170.75;;;-142.70;100.00
51439;BME280;38816;51.142;-0.974;2024-03-06T06:22:36;78162.84;;;-142.70;100.00
51439;BME280;38816;51.142;-0.974;2024-03-06T06:25:01;78158.91;;;-142.70;100.00
51439;BME280;38816;51.142;-0.974;2024-03-06T06:27:28;78158.91;;;-142.70;100.00
51439;BME280;38816;51.142;-0.974;2024-03-06T06:29:54;78160.88;;;-142.70;100.00
51439;BME280;38816;51.142;-0.974;2024-03-06T06:32:20;78147.09;;;-142.70;100.00
51439;BME280;38816;51.142;-0.974;2024-03-06T06:34:47;78147.09;;;-142.70;100.00
51439;BME280;38816;51.142;-0.974;2024-03-06T06:37:12;78147.09;;;-142.70;100.00
51439;BME280;38816;51.142;-0.974;2024-03-06T06:39:38;78143.16;;;-142.70;100.00
51439;BME280;38816;51.142;-0.974;2024-03-06T06:42:03;78139.19;;;-142.70;100.00
51439;BME280;38816;51.142;-0.974;2024-03-06T06:44:29;78137.22;;;-142.70;100.00
51439;BME280;38816;51.142;-0.974;2024-03-06T06:46:54;78139.19;;;-142.70;100.00
51439;BME280;38816;51.142;-0.974;2024-03-06T06:49:20;78135.25;;;-142.70;100.00
51439;BME280;38816;51.142;-0.974;2024-03-06T06:51:46;78131.31;;;-142.70;100.00
51439;BME280;38816;51.142;-0.974;2024-03-06T06:54:13;78125.41;;;-142.70;100.00
51439;BME280;38816;51.142;-0.974;2024-03-06T06:56:38;78117.50;;;-142.70;100.00
51439;BME280;38816;51.142;-0.974;2024-03-06T06:59:04;78107.66;;;-142.70;100.00
51439;BME280;38816;51.142;-0.974;2024-03-06T07:01:29;78103.72;;;-142.70;100.00
51439;BME280;38816;51.142;-0.974;2024-03-06T07:03:55;78095.81;;;-142.70;100.00
51439;BME280;38816;51.142;-0.974;2024-03-06T07:06:20;78091.88;;;-142.70;100.00
51439;BME280;38816;51.142;-0.974;2024-03-06T07:08:45;78087.94;;;-142.70;100.00
51439;BME280;38816;51.142;-0.974;2024-03-06T07:11:12;78080.03;;;-142.70;100.00
51439;BME280;38816;51.142;-0.974;2024-03-06T07:13:37;78080.03;;;-142.70;100.00
51439;BME280;38816;51.142;-0.974;2024-03-06T07:16:03;78080.03;;;-142.70;100.00
51439;BME280;38816;51.142;-0.974;2024-03-06T07:18:29;78076.09;;;-142.70;100.00
51439;BME280;38816;51.142;-0.974;2024-03-06T07:20:55;78080.03;;;-142.70;100.00
51439;BME280;38816;51.142;-0.974;2024-03-06T07:23:20;78076.09;;;-142.70;100.00
51439;BME280;38816;51.142;-0.974;2024-03-06T07:25:46;78072.16;;;-142.70;100.00
51439;BME280;38816;51.142;-0.974;2024-03-06T07:28:11;78068.22;;;-142.70;100.00
51439;BME280;38816;51.142;-0.974;2024-03-06T07:30:37;78068.22;;;-142.70;100.00
51439;BME280;38816;51.142;-0.974;2024-03-06T07:33:02;78064.28;;;-142.70;100.00
51439;BME280;38816;51.142;-0.974;2024-03-06T07:35:28;78064.28;;;-142.70;100.00
51439;BME280;38816;51.142;-0.974;2024-03-06T07:37:53;78060.31;;;-142.70;100.00
51439;BME280;38816;51.142;-0.974;2024-03-06T07:40:19;78046.53;;;-142.70;100.00
51439;BME280;38816;51.142;-0.974;2024-03-06T07:42:44;78032.72;;;-142.70;100.00
51439;BME280;38816;51.142;-0.974;2024-03-06T07:45:09;78030.75;;;-142.70;100.00
51439;BME280;38816;51.142;-0.974;2024-03-06T07:47:35;78024.84;;;-142.70;100.00
51439;BME280;38816;51.142;-0.974;2024-03-06T07:50:04;78022.88;;;-142.70;100.00
51439;BME280;38816;51.142;-0.974;2024-03-06T07:52:31;78024.84;;;-142.70;100.00
51439;BME280;38816;51.142;-0.974;2024-03-06T07:54:57;78016.94;;;-142.70;100.00
51439;BME280;38816;51.142;-0.974;2024-03-06T07:57:22;78013.00;;;-142.70;100.00
51439;BME280;38816;51.142;-0.974;2024-03-06T07:59:48;78007.09;;;-142.70;100.00
51439;BME280;38816;51.142;-0.974;2024-03-06T08:02:14;77997.22;;;-142.70;100.00
51439;BME280;38816;51.142;-0.974;2024-03-06T08:04:40;77989.34;;;-142.70;100.00
51439;BME280;38816;51.142;-0.974;2024-03-06T08:07:05;77979.50;;;-142.70;100.00
51439;BME280;38816;51.142;-0.974;2024-03-06T08:09:31;77977.53;;;-142.70;100.00
51439;BME280;38816;51.142;-0.974;2024-03-06T08:11:56;77977.53;;;-142.70;100.00
51439;BME280;38816;51.142;-0.974;2024-03-06T08:14:22;77981.47;;;-142.70;100.00
51439;BME280;38816;51.142;-0.974;2024-03-06T08:16:49;77977.53;;;-142.70;100.00
51439;BME280;38816;51.142;-0.974;2024-03-06T08:19:14;77973.56;;;-142.70;100.00
51439;BME280;38816;51.142;-0.974;2024-03-06T08:21:40;77973.56;;;-142.70;100.00
51439;BME280;38816;51.142;-0.974;2024-03-06T08:24:06;77973.56;;;-142.70;100.00
51439;BME280;38816;51.142;-0.974;2024-03-06T08:26:31;77969.63;;;-142.70;100.00
51439;BME280;38816;51.142;-0.974;2024-03-06T08:28:57;77969.63;;;-142.70;100.00
51439;BME280;38816;51.142;-0.974;2024-03-06T08:31:22;77963.72;;;-142.70;100.00
51439;BME280;38816;51.142;-0.974;2024-03-06T08:33:47;77961.75;;;-142.70;100.00
51439;BME280;38816;51.142;-0.974;2024-03-06T08:36:13;77965.69;;;-142.70;100.00
51439;BME280;38816;51.142;-0.974;2024-03-06T08:38:41;77959.78;;;-142.70;100.00
51439;BME280;38816;51.142;-0.974;2024-03-06T08:41:07;77961.75;;;-142.70;100.00
51439;BME280;38816;51.142;-0.974;2024-03-06T08:43:32;77957.81;;;-142.70;100.00
51439;BME280;38816;51.142;-0.974;2024-03-06T08:45:58;77949.91;;;-142.70;100.00
51439;BME280;38816;51.142;-0.974;2024-03-06T08:48:23;77942.03;;;-142.70;100.00
51439;BME280;38816;51.142;-0.974;2024-03-06T08:50:57;77944.00;;;-142.70;100.00
51439;BME280;38816;51.142;-0.974;2024-03-06T08:53:22;77938.09;;;-142.70;100.00
51439;BME280;38816;51.142;-0.974;2024-03-06T08:55:48;77936.13;;;-142.70;100.00
51439;BME280;38816;51.142;-0.974;2024-03-06T08:58:14;77922.31;;;-142.70;100.00
51439;BME280;38816;51.142;-0.974;2024-03-06T09:00:40;77930.19;;;-142.70;100.00
51439;BME280;38816;51.142;-0.974;2024-03-06T09:03:05;77945.97;;;-142.70;100.00
51439;BME280;38816;51.142;-0.974;2024-03-06T09:05:31;77945.97;;;-142.70;100.00
51439;BME280;38816;51.142;-0.974;2024-03-06T09:07:56;77938.09;;;-142.70;100.00
51439;BME280;38816;51.142;-0.974;2024-03-06T09:10:23;77930.19;;;-142.70;100.00
51439;BME280;38816;51.142;-0.974;2024-03-06T09:12:48;77922.31;;;-142.70;100.00
51439;BME280;38816;51.142;-0.974;2024-03-06T09:15:15;77918.38;;;-142.70;100.00
51439;BME280;38816;51.142;-0.974;2024-03-06T09:17:41;77920.34;;;-142.70;100.00
51439;BME280;38816;51.142;-0.974;2024-03-06T09:20:10;77918.38;;;-142.70;100.00
51439;BME280;38816;51.142;-0.974;2024-03-06T09:22:39;77920.34;;;-142.70;100.00
51439;BME280;38816;51.142;-0.974;2024-03-06T09:25:06;77928.22;;;-142.70;100.00
51439;BME280;38816;51.142;-0.974;2024-03-06T09:27:32;77918.38;;;-142.70;100.00
51439;BME280;38816;51.142;-0.974;2024-03-06T09:29:58;77902.59;;;-142.70;100.00
51439;BME280;38816;51.142;-0.974;2024-03-06T09:32:23;77878.94;;;-142.70;100.00
51439;BME280;38816;51.142;-0.974;2024-03-06T09:34:51;77851.34;;;-142.70;100.00
51439;BME280;38816;51.142;-0.974;2024-03-06T09:37:17;77817.81;;;-142.70;100.00
51439;BME280;38816;51.142;-0.974;2024-03-06T09:39:42;77800.06;;;-142.70;100.00
51439;BME280;38816;51.142;-0.974;2024-03-06T09:42:08;77796.13;;;-142.70;100.00
51439;BME280;38816;51.142;-0.974;2024-03-06T09:44:34;77784.28;;;-142.70;100.00
51439;BME280;38816;51.142;-0.974;2024-03-06T09:47:02;77764.59;;;-142.70;100.00
51439;BME280;38816;51.142;-0.974;2024-03-06T09:49:31;77748.81;;;-142.70;100.00
51439;BME280;38816;51.142;-0.974;2024-03-06T09:51:58;77723.19;;;-142.70;100.00
51439;BME280;38816;51.142;-0.974;2024-03-06T09:54:25;77679.81;;;-142.70;100.00
51439;BME280;38816;51.142;-0.974;2024-03-06T09:56:54;77658.13;;;-142.70;100.00
51439;BME280;38816;51.142;-0.974;2024-03-06T09:59:22;77624.59;;;-142.70;100.00
51439;BME280;38816;51.142;-0.974;2024-03-06T10:01:54;77626.56;;;-142.70;100.00
51439;BME280;38816;51.142;-0.974;2024-03-06T10:04:23;77624.59;;;-142.70;100.00
51439;BME280;38816;51.142;-0.974;2024-03-06T10:06:56;77622.63;;;-142.70;100.00
51439;BME280;38816;51.142;-0.974;2024-03-06T10:09:22;77602.91;;;-142.70;100.00
51439;BME280;38816;51.142;-0.974;2024-03-06T10:11:48;77579.25;;;-142.70;100.00
51439;BME280;38816;51.142;-0.974;2024-03-06T10:14:14;77567.44;;;-142.70;100.00
51439;BME280;38816;51.142;-0.974;2024-03-06T10:16:57;77535.88;;;-142.70;100.00
51439;BME280;38816;51.142;-0.974;2024-03-06T10:19:24;77531.94;;;-142.70;100.00
51439;BME280;38816;51.142;-0.974;2024-03-06T10:21:51;77526.03;;;-142.70;100.00
51439;BME280;38816;51.142;-0.974;2024-03-06T10:24:21;77502.38;;;-142.70;100.00
51439;BME280;38816;51.142;-0.974;2024-03-06T10:26:48;77494.47;;;-142.70;100.00
51439;BME280;38816;51.142;-0.974;2024-03-06T10:29:18;77478.72;;;-142.70;100.00
51439;BME280;38816;51.142;-0.974;2024-03-06T10:32:02;77423.50;;;-142.70;100.00
51439;BME280;38816;51.142;-0.974;2024-03-06T10:34:28;77390.00;;;-142.70;100.00
51439;BME280;38816;51.142;-0.974;2024-03-06T10:37:03;77368.31;;;-142.70;100.00
51439;BME280;38816;51.142;-0.974;2024-03-06T10:39:33;77354.50;;;-142.70;100.00
51439;BME280;38816;51.142;-0.974;2024-03-06T10:42:04;77358.44;;;-142.70;100.00
51439;BME280;38816;51.142;-0.974;2024-03-06T10:44:34;77352.53;;;-142.70;100.00
51439;BME280;38816;51.142;-0.974;2024-03-06T10:47:05;77344.66;;;-142.70;100.00
51439;BME280;38816;51.142;-0.974;2024-03-06T10:49:32;77322.97;;;-142.70;100.00
51439;BME280;38816;51.142;-0.974;2024-03-06T10:52:03;77315.09;;;-142.70;100.00
51439;BME280;38816;51.142;-0.974;2024-03-06T10:54:32;77309.16;;;-142.70;100.00
51439;BME280;38816;51.142;-0.974;2024-03-06T10:57:01;77279.59;;;-142.70;100.00
51439;BME280;38816;51.142;-0.974;2024-03-06T10:59:28;77269.75;;;-142.70;100.00
51439;BME280;38816;51.142;-0.974;2024-03-06T11:01:57;77307.19;;;-142.70;100.00
51439;BME280;38816;51.142;-0.974;2024-03-06T11:04:27;77322.97;;;-142.70;100.00
51439;BME280;38816;51.142;-0.974;2024-03-06T11:07:02;77330.84;;;-142.70;100.00
51439;BME280;38816;51.142;-0.974;2024-03-06T11:09:35;77315.09;;;-142.70;100.00
51439;BME280;38816;51.142;-0.974;2024-03-06T11:12:01;77283.53;;;-142.70;100.00
51439;BME280;38816;51.142;-0.974;2024-03-06T11:14:27;77263.81;;;-142.70;100.00
51439;BME280;38816;51.142;-0.974;2024-03-06T11:17:03;77269.75;;;-142.70;100.00
51439;BME280;38816;51.142;-0.974;2024-03-06T11:19:32;77283.53;;;-142.70;100.00
51439;BME280;38816;51.142;-0.974;2024-03-06T11:21:58;77261.84;;;-142.70;100.00
51439;BME280;38816;51.142;-0.974;2024-03-06T11:24:33;77259.88;;;-142.70;100.00
51439;BME280;38816;51.142;-0.974;2024-03-06T11:27:04;77255.94;;;-142.70;100.00
51439;BME280;38816;51.142;-0.974;2024-03-06T11:30:06;77208.63;;;-142.70;100.00
51439;BME280;38816;51.142;-0.974;2024-03-06T11:32:57;77167.22;;;-142.70;100.00
51439;BME280;38816;51.142;-0.974;2024-03-06T11:35:23;77159.34;;;-142.70;100.00
51439;BME280;38816;51.142;-0.974;2024-03-06T11:37:50;77165.25;;;-142.70;100.00
51439;BME280;38816;51.142;-0.974;2024-03-06T11:40:23;77210.59;;;-142.70;100.00
51439;BME280;38816;51.142;-0.974;2024-03-06T11:42:49;77269.75;;;-142.70;100.00
51439;BME280;38816;51.142;-0.974;2024-03-06T11:45:18;77307.19;;;-142.70;100.00
51439;BME280;38816;51.142;-0.974;2024-03-06T11:48:01;77326.91;;;-142.70;100.00
51439;BME280;38816;51.142;-0.974;2024-03-06T11:50:27;77326.91;;;-142.70;100.00
51439;BME280;38816;51.142;-0.974;2024-03-06T11:52:53;77309.16;;;-142.70;100.00
51439;BME280;38816;51.142;-0.974;2024-03-06T11:55:21;77271.72;;;-142.70;100.00
51439;BME280;38816;51.142;-0.974;2024-03-06T11:57:47;77253.97;;;-142.70;100.00
51439;BME280;38816;51.142;-0.974;2024-03-06T12:00:13;77267.78;;;-142.70;100.00
51439;BME280;38816;51.142;-0.974;2024-03-06T12:02:40;77289.44;;;-142.70;100.00
51439;BME280;38816;51.142;-0.974;2024-03-06T12:05:07;77297.34;;;-142.70;100.00
51439;BME280;38816;51.142;-0.974;2024-03-06T12:07:48;77281.56;;;-142.70;100.00
51439;BME280;38816;51.142;-0.974;2024-03-06T12:10:13;77287.47;;;-142.70;100.00
51439;BME280;38816;51.142;-0.974;2024-03-06T12:12:40;77275.66;;;-142.70;100.00
51439;BME280;38816;51.142;-0.974;2024-03-06T12:15:09;77261.84;;;-142.70;100.00
51439;BME280;38816;51.142;-0.974;2024-03-06T12:17:47;77244.13;;;-142.70;100.00
51439;BME280;38816;51.142;-0.974;2024-03-06T12:20:16;77228.34;;;-142.70;100.00